createdAt,value
2023-10-26T00:00:39.105Z,11.73
2023-10-26T00:03:06.089Z,11.74
2023-10-26T00:05:32.860Z,11.74
2023-10-26T00:07:59.377Z,11.74
2023-10-26T00:10:26.037Z,11.76
2023-10-26T00:12:52.805Z,11.76
2023-10-26T00:15:19.446Z,11.77
2023-10-26T00:17:46.557Z,11.78
2023-10-26T00:20:13.477Z,11.80
2023-10-26T00:22:40.130Z,11.80
2023-10-26T00:25:07.367Z,11.81
2023-10-26T00:27:34.864Z,11.79
2023-10-26T00:30:01.627Z,11.79
2023-10-26T00:32:28.412Z,11.78
2023-10-26T00:34:55.018Z,11.78
2023-10-26T00:37:21.627Z,11.74
2023-10-26T00:39:48.176Z,11.67
2023-10-26T00:42:14.755Z,11.66
2023-10-26T00:44:41.533Z,11.62
2023-10-26T00:47:08.255Z,11.58
2023-10-26T00:49:35.085Z,11.56
2023-10-26T00:52:03.770Z,11.54
2023-10-26T00:54:33.086Z,11.53
2023-10-26T00:57:00.333Z,11.55
2023-10-26T00:59:30.649Z,11.52
2023-10-26T01:01:58.629Z,11.50
2023-10-26T01:04:25.384Z,11.49
2023-10-26T01:06:52.004Z,11.47
2023-10-26T01:09:18.766Z,11.46
2023-10-26T01:11:45.717Z,11.47
2023-10-26T01:14:12.618Z,11.46
2023-10-26T01:16:40.837Z,11.45
2023-10-26T01:19:09.086Z,11.42
2023-10-26T01:21:53.177Z,11.41
2023-10-26T01:24:20.367Z,11.40
2023-10-26T01:26:47.288Z,11.39
2023-10-26T01:29:13.849Z,11.38
2023-10-26T01:31:40.469Z,11.38
2023-10-26T01:34:07.104Z,11.40
2023-10-26T01:36:33.670Z,11.40
2023-10-26T01:39:02.244Z,11.43
2023-10-26T01:41:33.456Z,11.45
2023-10-26T01:44:02.105Z,11.47
2023-10-26T01:46:28.651Z,11.48
2023-10-26T01:48:55.510Z,11.49
2023-10-26T01:51:22.120Z,11.47
2023-10-26T01:53:48.682Z,11.46
2023-10-26T01:56:15.372Z,11.42
2023-10-26T01:58:41.968Z,11.37
2023-10-26T02:01:08.465Z,11.31
2023-10-26T02:03:35.033Z,11.26
2023-10-26T02:06:04.014Z,11.20
2023-10-26T02:08:30.795Z,11.12
2023-10-26T02:10:57.528Z,11.09
2023-10-26T02:13:24.099Z,11.08
2023-10-26T02:15:50.665Z,11.06
2023-10-26T02:18:17.249Z,11.07
2023-10-26T02:20:43.865Z,11.10
2023-10-26T02:23:10.563Z,11.12
2023-10-26T02:25:37.038Z,11.14
2023-10-26T02:28:04.330Z,11.15
2023-10-26T02:30:30.882Z,11.16
2023-10-26T02:32:57.586Z,11.17
2023-10-26T02:35:24.224Z,11.16
2023-10-26T02:37:50.909Z,11.16
2023-10-26T02:40:17.492Z,11.16
2023-10-26T02:42:44.128Z,11.17
2023-10-26T02:45:10.819Z,11.18
2023-10-26T02:47:39.061Z,11.17
2023-10-26T02:50:07.546Z,11.17
2023-10-26T02:52:34.138Z,11.18
2023-10-26T02:55:00.846Z,11.18
2023-10-26T02:57:27.532Z,11.19
2023-10-26T02:59:55.130Z,11.18
2023-10-26T03:02:21.754Z,11.17
2023-10-26T03:04:48.476Z,11.18
2023-10-26T03:07:22.006Z,11.17
2023-10-26T03:09:49.034Z,11.16
2023-10-26T03:12:15.895Z,11.14
2023-10-26T03:14:42.773Z,11.13
2023-10-26T03:17:09.520Z,11.13
2023-10-26T03:19:36.111Z,11.13
2023-10-26T03:22:02.818Z,11.14
2023-10-26T03:24:29.498Z,11.17
2023-10-26T03:26:56.095Z,11.17
2023-10-26T03:29:22.792Z,11.18
2023-10-26T03:31:49.422Z,11.17
2023-10-26T03:34:15.971Z,11.17
2023-10-26T03:36:42.688Z,11.17
2023-10-26T03:39:09.423Z,11.17
2023-10-26T03:41:36.144Z,11.16
2023-10-26T03:44:02.785Z,11.13
2023-10-26T03:46:29.343Z,11.11
2023-10-26T03:48:55.939Z,11.08
2023-10-26T03:51:22.734Z,11.06
2023-10-26T03:53:49.579Z,11.04
2023-10-26T03:56:16.153Z,11.01
2023-10-26T03:58:42.715Z,10.99
2023-10-26T04:01:09.264Z,10.95
2023-10-26T04:03:36.065Z,10.89
2023-10-26T04:06:02.704Z,10.83
2023-10-26T04:08:29.250Z,10.77
2023-10-26T04:10:55.791Z,10.74
2023-10-26T04:13:22.357Z,10.69
2023-10-26T04:15:50.545Z,10.66
2023-10-26T04:18:18.646Z,10.65
2023-10-26T04:20:45.454Z,10.63
2023-10-26T04:23:11.960Z,10.62
2023-10-26T04:25:52.998Z,10.59
2023-10-26T04:28:20.904Z,10.57
2023-10-26T04:30:50.791Z,10.56
2023-10-26T04:33:18.550Z,10.56
2023-10-26T04:35:46.314Z,10.58
2023-10-26T04:38:13.205Z,10.55
2023-10-26T04:40:40.959Z,10.53
2023-10-26T04:43:08.396Z,10.54
2023-10-26T04:45:35.383Z,10.52
2023-10-26T04:48:02.600Z,10.46
2023-10-26T04:50:31.408Z,10.43
2023-10-26T04:53:03.620Z,10.43
2023-10-26T04:55:35.217Z,10.42
2023-10-26T04:58:03.041Z,10.42
2023-10-26T05:00:29.862Z,10.42
2023-10-26T05:02:56.668Z,10.39
2023-10-26T05:05:23.339Z,10.38
2023-10-26T05:07:50.059Z,10.37
2023-10-26T05:10:16.658Z,10.39
2023-10-26T05:12:43.612Z,10.38
2023-10-26T05:15:10.388Z,10.37
2023-10-26T05:17:38.430Z,10.34
2023-10-26T05:20:06.306Z,10.31
2023-10-26T05:22:35.753Z,10.29
2023-10-26T05:25:05.486Z,10.26
2023-10-26T05:27:37.115Z,10.23
2023-10-26T05:30:05.880Z,10.24
2023-10-26T05:32:32.562Z,10.23
2023-10-26T05:34:59.341Z,10.23
2023-10-26T05:37:26.035Z,10.23
2023-10-26T05:39:52.609Z,10.24
2023-10-26T05:42:19.383Z,10.25
2023-10-26T05:44:46.037Z,10.27
2023-10-26T05:47:12.525Z,10.27
2023-10-26T05:49:39.135Z,10.30
2023-10-26T05:52:06.007Z,10.35
2023-10-26T05:54:32.776Z,10.36
2023-10-26T05:56:59.724Z,10.38
2023-10-26T05:59:27.597Z,10.43
2023-10-26T06:01:54.234Z,10.44
2023-10-26T06:04:21.070Z,10.44
2023-10-26T06:06:47.884Z,10.45
2023-10-26T06:09:14.540Z,10.44
2023-10-26T06:11:41.076Z,10.46
2023-10-26T06:14:07.696Z,10.47
2023-10-26T06:16:34.256Z,10.50
2023-10-26T06:19:00.770Z,10.52
2023-10-26T06:21:28.525Z,10.53
2023-10-26T06:23:55.334Z,10.55
2023-10-26T06:26:21.993Z,10.58
2023-10-26T06:28:48.605Z,10.59
2023-10-26T06:31:15.986Z,10.60
2023-10-26T06:33:43.946Z,10.62
2023-10-26T06:36:14.067Z,10.63
2023-10-26T06:38:41.240Z,10.64
2023-10-26T06:41:10.470Z,10.67
2023-10-26T06:43:38.311Z,10.70
2023-10-26T06:46:05.387Z,10.75
2023-10-26T06:48:32.051Z,10.80
2023-10-26T06:51:00.854Z,10.83
2023-10-26T06:53:28.448Z,10.86
2023-10-26T06:55:54.919Z,10.88
2023-10-26T06:58:21.388Z,10.90
2023-10-26T07:00:52.609Z,10.90
2023-10-26T07:03:20.096Z,10.92
2023-10-26T07:05:48.795Z,10.94
2023-10-26T07:08:15.440Z,10.95
2023-10-26T07:10:41.983Z,11.00
2023-10-26T07:13:09.269Z,11.02
2023-10-26T07:15:37.345Z,11.05
2023-10-26T07:18:05.236Z,11.09
2023-10-26T07:20:31.936Z,11.14
2023-10-26T07:22:58.529Z,11.18
2023-10-26T07:25:25.037Z,11.22
2023-10-26T07:27:51.824Z,11.27
2023-10-26T07:30:18.630Z,11.31
2023-10-26T07:32:45.253Z,11.34
2023-10-26T07:35:12.110Z,11.39
2023-10-26T07:37:39.117Z,11.42
2023-10-26T07:40:29.038Z,11.46
2023-10-26T07:42:53.704Z,11.47
2023-10-26T07:45:20.379Z,11.50
2023-10-26T07:47:47.712Z,11.55
2023-10-26T07:50:18.005Z,11.56
2023-10-26T07:52:44.551Z,11.56
2023-10-26T07:55:11.250Z,11.55
2023-10-26T07:57:38.335Z,11.58
2023-10-26T08:00:06.076Z,11.60
2023-10-26T08:02:35.260Z,11.64
2023-10-26T08:05:02.563Z,11.68
2023-10-26T08:07:29.200Z,11.68
2023-10-26T08:09:55.778Z,11.70
2023-10-26T08:12:22.322Z,11.70
2023-10-26T08:16:29.663Z,11.69
2023-10-26T08:17:36.688Z,11.69
2023-10-26T08:20:05.642Z,11.71
2023-10-26T08:22:32.839Z,11.71
2023-10-26T08:25:00.626Z,11.70
2023-10-26T08:27:27.152Z,11.73
2023-10-26T08:29:53.828Z,11.76
2023-10-26T08:32:21.102Z,11.77
2023-10-26T08:34:48.012Z,11.79
2023-10-26T08:37:14.705Z,11.84
2023-10-26T08:39:41.868Z,11.89
2023-10-26T08:42:09.769Z,11.92
2023-10-26T08:44:37.670Z,11.95
2023-10-26T08:47:05.372Z,11.98
2023-10-26T08:49:33.294Z,12.02
2023-10-26T08:52:00.865Z,12.05
2023-10-26T08:54:28.089Z,12.07
2023-10-26T08:56:55.444Z,12.10
2023-10-26T08:59:24.431Z,12.14
2023-10-26T09:01:51.415Z,12.16
2023-10-26T09:06:49.136Z,12.20
2023-10-26T09:09:16.836Z,12.19
2023-10-26T09:11:47.969Z,12.17
2023-10-26T09:14:15.756Z,12.14
2023-10-26T09:16:44.902Z,12.14
2023-10-26T09:19:19.583Z,12.14
2023-10-26T09:21:53.620Z,12.15
2023-10-26T09:24:22.538Z,12.13
2023-10-26T09:26:49.551Z,12.14
2023-10-26T09:29:16.205Z,12.13
2023-10-26T09:31:54.552Z,12.12
2023-10-26T09:34:27.775Z,12.07
2023-10-26T09:37:04.614Z,12.10
2023-10-26T09:39:36.458Z,12.17
2023-10-26T09:42:04.236Z,12.22
2023-10-26T09:44:31.261Z,12.18
2023-10-26T09:46:58.960Z,12.16
2023-10-26T09:49:27.525Z,12.09
2023-10-26T09:51:55.131Z,12.00
2023-10-26T09:54:25.920Z,11.92
2023-10-26T09:57:00.701Z,11.86
2023-10-26T09:59:29.130Z,11.75
2023-10-26T10:01:55.835Z,11.69
2023-10-26T10:04:38.250Z,11.66
2023-10-26T10:07:05.415Z,11.61
2023-10-26T10:09:32.968Z,11.60
2023-10-26T10:12:05.887Z,11.54
2023-10-26T10:14:47.996Z,11.54
2023-10-26T10:17:19.159Z,11.57
2023-10-26T10:19:48.294Z,11.56
2023-10-26T10:22:40.128Z,11.59
2023-10-26T10:25:10.538Z,11.60
2023-10-26T10:28:00.225Z,11.59
2023-10-26T10:30:31.513Z,11.56
2023-10-26T10:32:58.587Z,11.56
2023-10-26T10:35:47.247Z,11.59
2023-10-26T10:38:17.216Z,11.62
2023-10-26T10:40:56.231Z,11.64
2023-10-26T10:43:33.863Z,11.68
2023-10-26T10:46:10.246Z,11.74
2023-10-26T10:48:37.288Z,11.78
2023-10-26T10:51:04.740Z,11.83
2023-10-26T10:53:32.697Z,11.85
2023-10-26T10:55:59.689Z,11.91
2023-10-26T10:58:36.981Z,11.96
2023-10-26T11:01:03.548Z,12.02
2023-10-26T11:03:30.152Z,12.03
2023-10-26T11:05:56.747Z,12.01
2023-10-26T11:08:23.514Z,12.01
2023-10-26T11:10:50.957Z,12.01
2023-10-26T11:13:22.641Z,12.01
2023-10-26T11:15:49.294Z,12.06
2023-10-26T11:18:16.106Z,12.18
2023-10-26T11:20:49.616Z,12.32
2023-10-26T11:23:22.522Z,12.44
2023-10-26T11:25:49.169Z,12.53
2023-10-26T11:28:15.803Z,12.59
2023-10-26T11:30:50.699Z,12.58
2023-10-26T11:33:38.630Z,12.49
2023-10-26T11:36:13.796Z,12.39
2023-10-26T11:38:50.628Z,12.33
2023-10-26T11:41:24.543Z,12.36
2023-10-26T11:43:51.469Z,12.35
2023-10-26T11:46:35.294Z,12.35
2023-10-26T11:49:04.327Z,12.37
2023-10-26T11:51:31.851Z,12.41
2023-10-26T11:54:11.709Z,12.51
2023-10-26T11:56:38.422Z,12.62
2023-10-26T11:59:05.279Z,12.78
2023-10-26T12:01:31.962Z,12.91
2023-10-26T12:03:58.724Z,12.98
2023-10-26T12:06:25.280Z,13.04
2023-10-26T12:08:51.815Z,13.15
2023-10-26T12:11:18.451Z,13.28
2023-10-26T12:13:44.953Z,13.47
2023-10-26T12:16:11.594Z,13.73
2023-10-26T12:18:38.212Z,13.96
2023-10-26T12:21:04.752Z,14.27
2023-10-26T12:23:31.632Z,14.45
2023-10-26T12:25:58.231Z,14.47
2023-10-26T12:28:27.066Z,14.40
2023-10-26T12:30:55.876Z,14.38
2023-10-26T12:33:22.587Z,14.31
2023-10-26T12:35:49.212Z,14.19
2023-10-26T12:38:15.833Z,14.25
2023-10-26T12:40:42.506Z,14.32
2023-10-26T12:43:09.013Z,14.31
2023-10-26T12:45:36.957Z,14.26
2023-10-26T12:48:04.254Z,14.22
2023-10-26T12:50:31.608Z,14.28
2023-10-26T12:52:58.302Z,14.37
2023-10-26T12:55:25.126Z,14.37
2023-10-26T12:57:53.261Z,14.44
2023-10-26T13:00:20.860Z,14.48
2023-10-26T13:02:47.664Z,14.41
2023-10-26T13:05:14.295Z,14.40
2023-10-26T13:07:40.924Z,14.53
2023-10-26T13:10:08.424Z,14.64
2023-10-26T13:12:35.313Z,14.74
2023-10-26T13:15:05.445Z,14.84
2023-10-26T13:17:32.999Z,14.88
2023-10-26T13:19:59.881Z,14.88
2023-10-26T13:22:28.826Z,14.86
2023-10-26T13:24:55.969Z,14.82
2023-10-26T13:27:23.117Z,14.72
2023-10-26T13:29:50.358Z,14.68
2023-10-26T13:32:17.052Z,14.58
2023-10-26T13:34:44.044Z,14.48
2023-10-26T13:37:10.776Z,14.34
2023-10-26T13:39:38.674Z,14.24
2023-10-26T13:42:05.431Z,14.18
2023-10-26T13:44:32.123Z,14.14
2023-10-26T13:46:58.816Z,14.12
2023-10-26T13:49:25.578Z,14.09
2023-10-26T13:51:52.884Z,14.08
2023-10-26T13:54:19.524Z,14.05
2023-10-26T13:56:46.239Z,14.03
2023-10-26T13:59:12.814Z,14.01
2023-10-26T14:01:39.485Z,14.02
2023-10-26T14:04:06.626Z,14.02
2023-10-26T14:06:33.320Z,14.01
2023-10-26T14:08:59.973Z,13.98
2023-10-26T14:11:27.935Z,13.98
2023-10-26T14:13:54.962Z,13.92
2023-10-26T14:16:21.919Z,13.89
2023-10-26T14:18:51.361Z,13.88
2023-10-26T14:21:18.067Z,13.90
2023-10-26T14:23:44.928Z,13.91
2023-10-26T14:26:11.718Z,13.90
2023-10-26T14:28:38.469Z,13.89
2023-10-26T14:31:05.567Z,13.87
2023-10-26T14:33:32.416Z,13.84
2023-10-26T14:35:59.160Z,13.82
2023-10-26T14:38:25.868Z,13.81
2023-10-26T14:40:56.726Z,13.80
2023-10-26T14:43:24.363Z,13.79
2023-10-26T14:45:51.031Z,13.80
2023-10-26T14:48:17.634Z,13.80
2023-10-26T14:50:46.261Z,13.80
2023-10-26T14:53:13.612Z,13.79
2023-10-26T14:58:25.785Z,13.78
2023-10-26T15:00:52.369Z,13.79
2023-10-26T15:03:18.939Z,13.80
2023-10-26T15:05:46.156Z,13.81
2023-10-26T15:08:12.762Z,13.82
2023-10-26T15:10:45.905Z,13.80
2023-10-26T15:13:12.515Z,13.78
2023-10-26T15:15:39.630Z,13.76
2023-10-26T15:18:08.617Z,13.77
2023-10-26T15:20:36.248Z,13.75
2023-10-26T15:23:02.990Z,13.74
2023-10-26T15:25:29.761Z,13.74
2023-10-26T15:27:58.352Z,13.71
2023-10-26T15:30:26.081Z,13.72
2023-10-26T15:32:52.685Z,13.68
2023-10-26T15:35:21.343Z,13.68
2023-10-26T15:37:47.968Z,13.67
2023-10-26T15:40:14.636Z,13.66
2023-10-26T15:42:41.281Z,13.70
2023-10-26T15:45:08.503Z,13.73
2023-10-26T15:47:35.303Z,13.67
2023-10-26T15:50:02.013Z,13.66
2023-10-26T15:52:28.718Z,13.66
2023-10-26T15:54:55.233Z,13.60
2023-10-26T15:57:22.512Z,13.60
2023-10-26T15:59:49.339Z,13.59
2023-10-26T16:02:15.812Z,13.55
2023-10-26T16:04:42.894Z,13.54
2023-10-26T16:07:09.621Z,13.49
2023-10-26T16:09:37.523Z,13.46
2023-10-26T16:12:04.675Z,13.48
2023-10-26T16:14:31.119Z,13.48
2023-10-26T16:16:57.637Z,13.46
2023-10-26T16:19:24.407Z,13.37
2023-10-26T16:21:50.969Z,13.36
2023-10-26T16:24:19.103Z,13.33
2023-10-26T16:26:45.619Z,13.25
2023-10-26T16:29:12.064Z,13.24
2023-10-26T16:31:38.677Z,13.24
2023-10-26T16:34:05.266Z,13.19
2023-10-26T16:36:31.747Z,13.19
2023-10-26T16:38:58.409Z,13.17
2023-10-26T16:41:25.225Z,13.15
2023-10-26T16:43:53.178Z,13.12
2023-10-26T16:46:21.269Z,13.08
2023-10-26T16:48:47.953Z,13.09
2023-10-26T16:51:14.624Z,13.06
2023-10-26T16:53:41.579Z,12.99
2023-10-26T16:56:09.540Z,13.00
2023-10-26T16:58:36.134Z,12.99
2023-10-26T17:01:12.217Z,12.95
2023-10-26T17:03:39.211Z,12.96
2023-10-26T17:06:05.899Z,12.93
2023-10-26T17:08:32.816Z,12.94
2023-10-26T17:10:59.696Z,12.91
2023-10-26T17:13:26.308Z,12.93
2023-10-26T17:15:54.141Z,12.93
2023-10-26T17:18:22.625Z,12.93
2023-10-26T17:20:50.152Z,12.92
2023-10-26T17:23:16.874Z,12.96
2023-10-26T17:25:43.643Z,12.94
2023-10-26T17:28:10.212Z,12.94
2023-10-26T17:30:38.059Z,12.96
2023-10-26T17:33:05.118Z,12.95
2023-10-26T17:35:31.665Z,13.00
2023-10-26T17:37:58.152Z,13.00
2023-10-26T17:40:25.202Z,12.97
2023-10-26T17:42:52.629Z,12.99
2023-10-26T17:45:19.951Z,12.98
2023-10-26T17:47:46.835Z,12.97
2023-10-26T17:50:13.595Z,12.92
2023-10-26T17:52:40.196Z,12.99
2023-10-26T17:55:06.912Z,12.97
2023-10-26T17:57:33.581Z,12.91
2023-10-26T18:00:00.152Z,12.91
2023-10-26T18:02:26.879Z,12.92
2023-10-26T18:04:53.538Z,12.88
2023-10-26T18:07:20.127Z,12.90
2023-10-26T18:09:47.395Z,12.91
2023-10-26T18:12:15.872Z,12.88
2023-10-26T18:14:42.740Z,12.92
2023-10-26T18:17:09.350Z,12.88
2023-10-26T18:19:35.899Z,12.90
2023-10-26T18:22:02.523Z,12.88
2023-10-26T18:24:32.796Z,12.85
2023-10-26T18:26:59.464Z,12.84
2023-10-26T18:29:26.394Z,12.80
2023-10-26T18:31:56.988Z,12.78
2023-10-26T18:34:23.693Z,12.78
2023-10-26T18:36:50.484Z,12.79
2023-10-26T18:39:17.305Z,12.75
2023-10-26T18:41:45.564Z,12.72
2023-10-26T18:44:12.059Z,12.70
2023-10-26T18:46:41.303Z,12.67
2023-10-26T18:49:08.146Z,12.68
2023-10-26T18:51:34.610Z,12.64
2023-10-26T18:54:01.093Z,12.55
2023-10-26T18:56:27.561Z,12.57
2023-10-26T18:58:56.062Z,12.55
2023-10-26T19:01:27.502Z,12.51
2023-10-26T19:04:02.139Z,12.52
2023-10-26T19:06:32.201Z,12.48
2023-10-26T19:08:59.429Z,12.45
2023-10-26T19:11:26.617Z,12.41
2023-10-26T19:13:53.312Z,12.42
2023-10-26T19:16:19.983Z,12.40
2023-10-26T19:18:46.722Z,12.43
2023-10-26T19:21:13.311Z,12.39
2023-10-26T19:23:39.769Z,12.38
2023-10-26T19:26:06.350Z,12.37
2023-10-26T19:28:32.990Z,12.34
2023-10-26T19:30:59.763Z,12.34
2023-10-26T19:33:28.248Z,12.32
2023-10-26T19:35:54.859Z,12.32
2023-10-26T19:38:21.278Z,12.29
2023-10-26T19:40:50.160Z,12.27
2023-10-26T19:43:16.895Z,12.22
2023-10-26T19:45:43.634Z,12.23
2023-10-26T19:48:10.313Z,12.22
2023-10-26T19:50:36.886Z,12.20
2023-10-26T19:53:03.766Z,12.21
2023-10-26T19:55:30.271Z,12.16
2023-10-26T19:57:57.009Z,12.16
2023-10-26T20:00:23.860Z,12.17
2023-10-26T20:02:50.487Z,12.13
2023-10-26T20:05:20.768Z,12.11
2023-10-26T20:07:47.305Z,12.09
2023-10-26T20:10:13.894Z,12.03
2023-10-26T20:12:40.422Z,12.05
2023-10-26T20:15:10.473Z,12.05
2023-10-26T20:17:36.989Z,12.04
2023-10-26T20:20:07.913Z,12.04
2023-10-26T20:22:35.058Z,12.04
2023-10-26T20:25:01.871Z,12.03
2023-10-26T20:27:28.615Z,12.07
2023-10-26T20:29:55.249Z,12.05
2023-10-26T20:32:21.784Z,12.04
2023-10-26T20:34:48.353Z,12.04
2023-10-26T20:37:15.128Z,12.04
2023-10-26T20:39:44.494Z,12.05
2023-10-26T20:42:11.498Z,12.04
2023-10-26T20:44:38.608Z,12.01
2023-10-26T20:47:06.269Z,12.07
2023-10-26T20:49:34.016Z,12.01
2023-10-26T20:52:02.076Z,12.03
2023-10-26T20:54:30.215Z,12.03
2023-10-26T20:56:56.776Z,12.00
2023-10-26T20:59:23.631Z,12.00
2023-10-26T21:01:50.231Z,11.98
2023-10-26T21:04:17.126Z,11.96
2023-10-26T21:06:47.390Z,11.93
2023-10-26T21:09:15.524Z,11.93
2023-10-26T21:11:42.261Z,11.95
2023-10-26T21:14:12.746Z,11.95
2023-10-26T21:16:40.025Z,11.97
2023-10-26T21:19:06.978Z,11.93
2023-10-26T21:21:33.469Z,11.98
2023-10-26T21:23:59.951Z,11.91
2023-10-26T21:26:27.087Z,11.90
2023-10-26T21:28:55.438Z,11.84
2023-10-26T21:31:24.775Z,11.88
2023-10-26T21:33:54.417Z,11.90
2023-10-26T21:36:21.609Z,11.88
2023-10-26T21:38:53.524Z,11.85
2023-10-26T21:41:23.021Z,11.92
2023-10-26T21:43:54.142Z,11.90
2023-10-26T21:46:21.184Z,11.91
2023-10-26T21:48:54.257Z,11.90
2023-10-26T21:51:21.009Z,11.89
2023-10-26T21:53:47.638Z,11.88
2023-10-26T21:56:33.517Z,11.92
2023-10-26T21:59:08.913Z,11.87
2023-10-26T22:01:35.729Z,11.89
2023-10-26T22:04:21.026Z,11.88
2023-10-26T22:06:49.050Z,11.84
2023-10-26T22:09:16.150Z,11.83
2023-10-26T22:11:42.690Z,11.83
2023-10-26T22:14:09.124Z,11.83
2023-10-26T22:16:35.771Z,11.82
2023-10-26T22:19:02.347Z,11.80
2023-10-26T22:21:28.887Z,11.78
2023-10-26T22:23:55.475Z,11.78
2023-10-26T22:26:22.292Z,11.80
2023-10-26T22:28:48.807Z,11.78
2023-10-26T22:31:15.585Z,11.74
2023-10-26T22:33:42.088Z,11.74
2023-10-26T22:36:09.210Z,11.70
2023-10-26T22:38:36.840Z,11.73
2023-10-26T22:41:06.654Z,11.73
2023-10-26T22:43:33.105Z,11.73
2023-10-26T22:45:59.676Z,11.69
2023-10-26T22:48:26.894Z,11.71
2023-10-26T22:50:53.309Z,11.71
2023-10-26T22:53:19.838Z,11.69
2023-10-26T22:55:47.114Z,11.68
2023-10-26T22:58:13.737Z,11.67
2023-10-26T23:00:40.264Z,11.66
2023-10-26T23:03:06.730Z,11.65
2023-10-26T23:05:34.462Z,11.62
2023-10-26T23:08:01.602Z,11.62
2023-10-26T23:10:28.198Z,11.63
2023-10-26T23:12:54.745Z,11.64
2023-10-26T23:15:21.210Z,11.63
2023-10-26T23:17:47.883Z,11.65
2023-10-26T23:20:14.410Z,11.65
2023-10-26T23:22:40.949Z,11.62
2023-10-26T23:25:09.487Z,11.62
2023-10-26T23:27:36.416Z,11.56
2023-10-26T23:30:03.188Z,11.53
2023-10-26T23:32:29.732Z,11.54
2023-10-26T23:34:58.049Z,11.53
2023-10-26T23:37:24.830Z,11.52
2023-10-26T23:40:00.868Z,11.53
2023-10-26T23:42:27.406Z,11.55
2023-10-26T23:44:54.116Z,11.57
2023-10-26T23:47:20.647Z,11.56
2023-10-26T23:49:47.178Z,11.58
2023-10-26T23:52:13.692Z,11.54
2023-10-26T23:54:40.297Z,11.53
2023-10-26T23:57:06.808Z,11.52
2023-10-26T23:59:33.496Z,11.52
